sensor_id;sensor_type;location;lat;lon;timestamp;P1;durP1;ratioP1;P2;durP2;ratioP2
64682;SDS011;51107;47.652;19.016;2024-01-07T00:01:57;7.55;;;4.03;;
64682;SDS011;51107;47.652;19.016;2024-01-07T00:04:25;6.55;;;2.95;;
64682;SDS011;51107;47.652;19.016;2024-01-07T00:06:53;7.32;;;2.83;;
64682;SDS011;51107;47.652;19.016;2024-01-07T00:09:21;8.35;;;2.90;;
64682;SDS011;51107;47.652;19.016;2024-01-07T00:11:49;8.32;;;4.45;;
64682;SDS011;51107;47.652;19.016;2024-01-07T00:14:18;7.65;;;3.47;;
64682;SDS011;51107;47.652;19.016;2024-01-07T00:16:46;7.68;;;3.37;;
64682;SDS011;51107;47.652;19.016;2024-01-07T00:19:14;7.57;;;3.58;;
64682;SDS011;51107;47.652;19.016;2024-01-07T00:21:45;9.18;;;3.65;;
64682;SDS011;51107;47.652;19.016;2024-01-07T00:24:16;7.37;;;3.78;;
64682;SDS011;51107;47.652;19.016;2024-01-07T00:26:44;6.75;;;3.05;;
64682;SDS011;51107;47.652;19.016;2024-01-07T00:29:12;6.47;;;3.30;;
64682;SDS011;51107;47.652;19.016;2024-01-07T00:31:41;5.40;;;3.15;;
64682;SDS011;51107;47.652;19.016;2024-01-07T00:34:09;6.40;;;3.17;;
64682;SDS011;51107;47.652;19.016;2024-01-07T00:36:37;6.05;;;3.55;;
64682;SDS011;51107;47.652;19.016;2024-01-07T00:39:06;9.00;;;4.10;;
64682;SDS011;51107;47.652;19.016;2024-01-07T00:41:34;8.85;;;3.90;;
64682;SDS011;51107;47.652;19.016;2024-01-07T00:44:01;6.87;;;3.72;;
64682;SDS011;51107;47.652;19.016;2024-01-07T00:46:30;3.75;;;2.47;;
64682;SDS011;51107;47.652;19.016;2024-01-07T00:48:58;6.57;;;2.53;;
64682;SDS011;51107;47.652;19.016;2024-01-07T00:51:26;6.12;;;2.75;;
64682;SDS011;51107;47.652;19.016;2024-01-07T00:53:54;5.80;;;3.12;;
64682;SDS011;51107;47.652;19.016;2024-01-07T00:56:28;6.05;;;3.22;;
64682;SDS011;51107;47.652;19.016;2024-01-07T00:58:58;7.55;;;3.12;;
64682;SDS011;51107;47.652;19.016;2024-01-07T01:01:28;6.65;;;3.87;;
64682;SDS011;51107;47.652;19.016;2024-01-07T01:03:56;6.28;;;2.97;;
64682;SDS011;51107;47.652;19.016;2024-01-07T01:06:26;12.27;;;2.90;;
64682;SDS011;51107;47.652;19.016;2024-01-07T01:08:57;5.25;;;2.95;;
64682;SDS011;51107;47.652;19.016;2024-01-07T01:11:25;5.55;;;2.58;;
64682;SDS011;51107;47.652;19.016;2024-01-07T01:13:56;5.87;;;2.95;;
64682;SDS011;51107;47.652;19.016;2024-01-07T01:16:24;6.40;;;2.72;;
64682;SDS011;51107;47.652;19.016;2024-01-07T01:18:53;4.47;;;2.90;;
64682;SDS011;51107;47.652;19.016;2024-01-07T01:21:21;3.72;;;2.47;;
64682;SDS011;51107;47.652;19.016;2024-01-07T01:23:50;3.45;;;2.33;;
64682;SDS011;51107;47.652;19.016;2024-01-07T01:26:18;4.78;;;2.08;;
64682;SDS011;51107;47.652;19.016;2024-01-07T01:28:46;5.12;;;2.35;;
64682;SDS011;51107;47.652;19.016;2024-01-07T01:31:14;4.22;;;2.30;;
64682;SDS011;51107;47.652;19.016;2024-01-07T01:33:43;5.32;;;2.42;;
64682;SDS011;51107;47.652;19.016;2024-01-07T01:36:13;7.18;;;2.67;;
64682;SDS011;51107;47.652;19.016;2024-01-07T01:38:41;5.97;;;2.80;;
64682;SDS011;51107;47.652;19.016;2024-01-07T01:41:09;4.15;;;2.42;;
64682;SDS011;51107;47.652;19.016;2024-01-07T01:43:37;3.58;;;2.40;;
64682;SDS011;51107;47.652;19.016;2024-01-07T01:46:05;3.75;;;2.33;;
64682;SDS011;51107;47.652;19.016;2024-01-07T01:48:35;6.87;;;2.70;;
64682;SDS011;51107;47.652;19.016;2024-01-07T01:51:04;4.78;;;2.65;;
64682;SDS011;51107;47.652;19.016;2024-01-07T01:53:32;4.57;;;2.35;;
64682;SDS011;51107;47.652;19.016;2024-01-07T01:56:01;7.78;;;2.90;;
64682;SDS011;51107;47.652;19.016;2024-01-07T01:58:33;3.75;;;2.03;;
64682;SDS011;51107;47.652;19.016;2024-01-07T02:01:01;3.97;;;2.55;;
64682;SDS011;51107;47.652;19.016;2024-01-07T02:03:33;5.57;;;2.70;;
64682;SDS011;51107;47.652;19.016;2024-01-07T02:06:01;8.18;;;2.47;;
64682;SDS011;51107;47.652;19.016;2024-01-07T02:08:30;7.03;;;2.92;;
64682;SDS011;51107;47.652;19.016;2024-01-07T02:11:13;5.03;;;2.92;;
64682;SDS011;51107;47.652;19.016;2024-01-07T02:13:50;3.65;;;2.50;;
64682;SDS011;51107;47.652;19.016;2024-01-07T02:16:19;4.68;;;2.62;;
64682;SDS011;51107;47.652;19.016;2024-01-07T02:18:47;5.47;;;2.72;;
64682;SDS011;51107;47.652;19.016;2024-01-07T02:21:16;3.50;;;2.20;;
64682;SDS011;51107;47.652;19.016;2024-01-07T02:23:44;6.47;;;3.10;;
64682;SDS011;51107;47.652;19.016;2024-01-07T02:26:12;5.82;;;2.65;;
64682;SDS011;51107;47.652;19.016;2024-01-07T02:28:40;6.20;;;3.03;;
64682;SDS011;51107;47.652;19.016;2024-01-07T02:31:08;5.20;;;2.33;;
64682;SDS011;51107;47.652;19.016;2024-01-07T02:33:36;5.07;;;2.92;;
64682;SDS011;51107;47.652;19.016;2024-01-07T02:36:04;5.20;;;3.00;;
64682;SDS011;51107;47.652;19.016;2024-01-07T02:38:32;6.47;;;3.12;;
64682;SDS011;51107;47.652;19.016;2024-01-07T02:41:01;5.90;;;2.62;;
64682;SDS011;51107;47.652;19.016;2024-01-07T02:43:28;5.93;;;2.40;;
64682;SDS011;51107;47.652;19.016;2024-01-07T02:45:56;7.90;;;2.85;;
64682;SDS011;51107;47.652;19.016;2024-01-07T02:48:25;6.45;;;3.10;;
64682;SDS011;51107;47.652;19.016;2024-01-07T02:50:53;9.50;;;3.42;;
64682;SDS011;51107;47.652;19.016;2024-01-07T02:53:21;4.75;;;2.75;;
64682;SDS011;51107;47.652;19.016;2024-01-07T02:55:49;9.68;;;3.33;;
64682;SDS011;51107;47.652;19.016;2024-01-07T02:58:17;5.97;;;3.05;;
64682;SDS011;51107;47.652;19.016;2024-01-07T03:00:45;5.57;;;2.87;;
64682;SDS011;51107;47.652;19.016;2024-01-07T03:03:14;6.15;;;3.40;;
64682;SDS011;51107;47.652;19.016;2024-01-07T03:05:42;10.98;;;5.00;;
64682;SDS011;51107;47.652;19.016;2024-01-07T03:08:10;10.38;;;4.12;;
64682;SDS011;51107;47.652;19.016;2024-01-07T03:10:38;13.07;;;5.00;;
64682;SDS011;51107;47.652;19.016;2024-01-07T03:13:06;6.05;;;2.97;;
64682;SDS011;51107;47.652;19.016;2024-01-07T03:15:34;7.80;;;3.92;;
64682;SDS011;51107;47.652;19.016;2024-01-07T03:18:02;4.00;;;2.65;;
64682;SDS011;51107;47.652;19.016;2024-01-07T03:20:30;5.55;;;2.35;;
64682;SDS011;51107;47.652;19.016;2024-01-07T03:22:59;3.70;;;2.17;;
64682;SDS011;51107;47.652;19.016;2024-01-07T03:25:28;6.18;;;2.12;;
64682;SDS011;51107;47.652;19.016;2024-01-07T03:27:56;3.90;;;1.67;;
64682;SDS011;51107;47.652;19.016;2024-01-07T03:30:24;3.30;;;1.98;;
64682;SDS011;51107;47.652;19.016;2024-01-07T03:32:53;6.57;;;2.50;;
64682;SDS011;51107;47.652;19.016;2024-01-07T03:35:21;4.28;;;2.03;;
64682;SDS011;51107;47.652;19.016;2024-01-07T03:37:51;6.35;;;1.87;;
64682;SDS011;51107;47.652;19.016;2024-01-07T03:40:19;3.42;;;1.65;;
64682;SDS011;51107;47.652;19.016;2024-01-07T03:42:47;3.03;;;1.80;;
64682;SDS011;51107;47.652;19.016;2024-01-07T03:45:15;5.00;;;2.25;;
64682;SDS011;51107;47.652;19.016;2024-01-07T03:47:44;3.40;;;2.00;;
64682;SDS011;51107;47.652;19.016;2024-01-07T03:50:12;2.72;;;1.70;;
64682;SDS011;51107;47.652;19.016;2024-01-07T03:52:40;4.80;;;1.85;;
64682;SDS011;51107;47.652;19.016;2024-01-07T03:55:08;5.68;;;2.03;;
64682;SDS011;51107;47.652;19.016;2024-01-07T03:57:36;3.67;;;2.17;;
64682;SDS011;51107;47.652;19.016;2024-01-07T04:00:04;6.60;;;3.00;;
64682;SDS011;51107;47.652;19.016;2024-01-07T04:02:33;3.95;;;2.72;;
64682;SDS011;51107;47.652;19.016;2024-01-07T04:05:01;7.93;;;2.78;;
64682;SDS011;51107;47.652;19.016;2024-01-07T04:07:30;5.43;;;2.50;;
64682;SDS011;51107;47.652;19.016;2024-01-07T04:09:58;5.05;;;2.35;;
64682;SDS011;51107;47.652;19.016;2024-01-07T04:12:26;4.93;;;2.62;;
64682;SDS011;51107;47.652;19.016;2024-01-07T04:14:54;4.12;;;2.50;;
64682;SDS011;51107;47.652;19.016;2024-01-07T04:17:23;4.93;;;2.80;;
64682;SDS011;51107;47.652;19.016;2024-01-07T04:19:52;4.75;;;2.42;;
64682;SDS011;51107;47.652;19.016;2024-01-07T04:22:20;4.45;;;2.45;;
64682;SDS011;51107;47.652;19.016;2024-01-07T04:24:48;4.37;;;2.60;;
64682;SDS011;51107;47.652;19.016;2024-01-07T04:27:16;5.60;;;1.90;;
64682;SDS011;51107;47.652;19.016;2024-01-07T04:29:44;3.87;;;2.17;;
64682;SDS011;51107;47.652;19.016;2024-01-07T04:32:12;5.37;;;2.70;;
64682;SDS011;51107;47.652;19.016;2024-01-07T04:34:40;4.18;;;2.55;;
64682;SDS011;51107;47.652;19.016;2024-01-07T04:37:08;5.18;;;3.10;;
64682;SDS011;51107;47.652;19.016;2024-01-07T04:39:36;3.47;;;2.05;;
64682;SDS011;51107;47.652;19.016;2024-01-07T04:42:04;5.25;;;2.30;;
64682;SDS011;51107;47.652;19.016;2024-01-07T04:44:34;4.12;;;1.95;;
64682;SDS011;51107;47.652;19.016;2024-01-07T04:47:02;5.00;;;2.12;;
64682;SDS011;51107;47.652;19.016;2024-01-07T04:49:30;5.00;;;2.03;;
64682;SDS011;51107;47.652;19.016;2024-01-07T04:51:58;3.72;;;2.12;;
64682;SDS011;51107;47.652;19.016;2024-01-07T04:54:27;8.68;;;2.35;;
64682;SDS011;51107;47.652;19.016;2024-01-07T04:56:55;3.92;;;2.30;;
64682;SDS011;51107;47.652;19.016;2024-01-07T04:59:23;3.90;;;2.15;;
64682;SDS011;51107;47.652;19.016;2024-01-07T05:01:51;3.12;;;1.60;;
64682;SDS011;51107;47.652;19.016;2024-01-07T05:04:19;3.60;;;2.50;;
64682;SDS011;51107;47.652;19.016;2024-01-07T05:06:47;3.47;;;2.12;;
64682;SDS011;51107;47.652;19.016;2024-01-07T05:09:16;2.87;;;2.10;;
64682;SDS011;51107;47.652;19.016;2024-01-07T05:11:44;3.80;;;2.03;;
64682;SDS011;51107;47.652;19.016;2024-01-07T05:14:12;5.62;;;1.45;;
64682;SDS011;51107;47.652;19.016;2024-01-07T05:16:41;2.25;;;1.40;;
64682;SDS011;51107;47.652;19.016;2024-01-07T05:19:09;2.87;;;1.55;;
64682;SDS011;51107;47.652;19.016;2024-01-07T05:21:37;2.85;;;1.50;;
64682;SDS011;51107;47.652;19.016;2024-01-07T05:24:05;1.90;;;1.15;;
64682;SDS011;51107;47.652;19.016;2024-01-07T05:26:41;3.20;;;1.42;;
64682;SDS011;51107;47.652;19.016;2024-01-07T05:29:10;5.25;;;2.55;;
64682;SDS011;51107;47.652;19.016;2024-01-07T05:31:40;5.28;;;3.00;;
64682;SDS011;51107;47.652;19.016;2024-01-07T05:34:08;5.65;;;2.95;;
64682;SDS011;51107;47.652;19.016;2024-01-07T05:36:36;5.65;;;2.65;;
64682;SDS011;51107;47.652;19.016;2024-01-07T05:39:05;3.40;;;1.65;;
64682;SDS011;51107;47.652;19.016;2024-01-07T05:41:36;3.50;;;1.92;;
64682;SDS011;51107;47.652;19.016;2024-01-07T05:44:09;3.55;;;1.48;;
64682;SDS011;51107;47.652;19.016;2024-01-07T05:46:40;2.83;;;1.52;;
64682;SDS011;51107;47.652;19.016;2024-01-07T05:49:09;4.55;;;2.05;;
64682;SDS011;51107;47.652;19.016;2024-01-07T05:51:40;4.10;;;1.73;;
64682;SDS011;51107;47.652;19.016;2024-01-07T05:54:08;2.53;;;1.42;;
64682;SDS011;51107;47.652;19.016;2024-01-07T05:56:39;2.87;;;1.65;;
64682;SDS011;51107;47.652;19.016;2024-01-07T05:59:08;2.92;;;1.48;;
64682;SDS011;51107;47.652;19.016;2024-01-07T06:01:37;1.60;;;0.80;;
64682;SDS011;51107;47.652;19.016;2024-01-07T06:04:05;4.03;;;1.65;;
64682;SDS011;51107;47.652;19.016;2024-01-07T06:06:33;2.90;;;1.67;;
64682;SDS011;51107;47.652;19.016;2024-01-07T06:09:02;4.18;;;1.65;;
64682;SDS011;51107;47.652;19.016;2024-01-07T06:11:31;5.20;;;2.40;;
64682;SDS011;51107;47.652;19.016;2024-01-07T06:13:59;5.90;;;2.67;;
64682;SDS011;51107;47.652;19.016;2024-01-07T06:16:27;4.60;;;3.12;;
64682;SDS011;51107;47.652;19.016;2024-01-07T06:18:55;6.45;;;3.30;;
64682;SDS011;51107;47.652;19.016;2024-01-07T06:21:23;8.95;;;3.70;;
64682;SDS011;51107;47.652;19.016;2024-01-07T06:23:52;16.90;;;4.07;;
64682;SDS011;51107;47.652;19.016;2024-01-07T06:26:20;8.43;;;3.50;;
64682;SDS011;51107;47.652;19.016;2024-01-07T06:28:48;6.68;;;3.33;;
64682;SDS011;51107;47.652;19.016;2024-01-07T06:31:16;7.50;;;3.15;;
64682;SDS011;51107;47.652;19.016;2024-01-07T06:33:44;4.85;;;2.10;;
64682;SDS011;51107;47.652;19.016;2024-01-07T06:36:12;4.35;;;2.50;;
64682;SDS011;51107;47.652;19.016;2024-01-07T06:38:40;11.52;;;4.95;;
64682;SDS011;51107;47.652;19.016;2024-01-07T06:41:11;7.65;;;3.22;;
64682;SDS011;51107;47.652;19.016;2024-01-07T06:43:40;4.15;;;2.50;;
64682;SDS011;51107;47.652;19.016;2024-01-07T06:46:09;11.55;;;3.42;;
64682;SDS011;51107;47.652;19.016;2024-01-07T06:48:37;10.68;;;3.62;;
64682;SDS011;51107;47.652;19.016;2024-01-07T06:51:08;4.93;;;1.98;;
64682;SDS011;51107;47.652;19.016;2024-01-07T06:53:36;7.50;;;2.40;;
64682;SDS011;51107;47.652;19.016;2024-01-07T06:56:04;3.50;;;2.35;;
64682;SDS011;51107;47.652;19.016;2024-01-07T06:58:32;4.90;;;2.25;;
64682;SDS011;51107;47.652;19.016;2024-01-07T07:01:00;2.78;;;1.58;;
64682;SDS011;51107;47.652;19.016;2024-01-07T07:03:30;6.55;;;2.87;;
64682;SDS011;51107;47.652;19.016;2024-01-07T07:05:58;7.32;;;3.47;;
64682;SDS011;51107;47.652;19.016;2024-01-07T07:08:27;9.10;;;3.85;;
64682;SDS011;51107;47.652;19.016;2024-01-07T07:10:54;7.18;;;3.85;;
64682;SDS011;51107;47.652;19.016;2024-01-07T07:13:22;6.22;;;3.75;;
64682;SDS011;51107;47.652;19.016;2024-01-07T07:15:51;4.87;;;2.90;;
64682;SDS011;51107;47.652;19.016;2024-01-07T07:18:19;5.53;;;2.40;;
64682;SDS011;51107;47.652;19.016;2024-01-07T07:20:47;6.93;;;3.00;;
64682;SDS011;51107;47.652;19.016;2024-01-07T07:23:15;4.03;;;2.47;;
64682;SDS011;51107;47.652;19.016;2024-01-07T07:25:43;4.50;;;2.15;;
64682;SDS011;51107;47.652;19.016;2024-01-07T07:28:11;5.62;;;1.92;;
64682;SDS011;51107;47.652;19.016;2024-01-07T07:30:40;4.05;;;1.65;;
64682;SDS011;51107;47.652;19.016;2024-01-07T07:33:08;2.78;;;1.50;;
64682;SDS011;51107;47.652;19.016;2024-01-07T07:35:36;1.67;;;0.98;;
64682;SDS011;51107;47.652;19.016;2024-01-07T07:38:06;3.72;;;1.95;;
64682;SDS011;51107;47.652;19.016;2024-01-07T07:40:34;1.70;;;1.20;;
64682;SDS011;51107;47.652;19.016;2024-01-07T07:43:02;15.65;;;5.37;;
64682;SDS011;51107;47.652;19.016;2024-01-07T07:45:31;11.35;;;4.65;;
64682;SDS011;51107;47.652;19.016;2024-01-07T07:48:00;12.85;;;6.12;;
64682;SDS011;51107;47.652;19.016;2024-01-07T07:50:28;9.80;;;4.57;;
64682;SDS011;51107;47.652;19.016;2024-01-07T07:52:56;4.95;;;2.62;;
64682;SDS011;51107;47.652;19.016;2024-01-07T07:55:24;5.15;;;2.42;;
64682;SDS011;51107;47.652;19.016;2024-01-07T07:57:52;5.07;;;1.98;;
64682;SDS011;51107;47.652;19.016;2024-01-07T08:00:21;4.15;;;2.25;;
64682;SDS011;51107;47.652;19.016;2024-01-07T08:02:49;2.42;;;1.70;;
64682;SDS011;51107;47.652;19.016;2024-01-07T08:05:17;3.70;;;1.77;;
64682;SDS011;51107;47.652;19.016;2024-01-07T08:07:45;4.12;;;1.80;;
64682;SDS011;51107;47.652;19.016;2024-01-07T08:10:13;5.03;;;1.70;;
64682;SDS011;51107;47.652;19.016;2024-01-07T08:12:41;3.45;;;1.60;;
64682;SDS011;51107;47.652;19.016;2024-01-07T08:15:10;5.62;;;2.78;;
64682;SDS011;51107;47.652;19.016;2024-01-07T08:17:38;5.32;;;2.10;;
64682;SDS011;51107;47.652;19.016;2024-01-07T08:20:07;4.75;;;2.58;;
64682;SDS011;51107;47.652;19.016;2024-01-07T08:22:36;4.87;;;2.72;;
64682;SDS011;51107;47.652;19.016;2024-01-07T08:25:04;3.60;;;2.50;;
64682;SDS011;51107;47.652;19.016;2024-01-07T08:27:32;1.60;;;1.15;;
64682;SDS011;51107;47.652;19.016;2024-01-07T08:30:01;1.58;;;0.93;;
64682;SDS011;51107;47.652;19.016;2024-01-07T08:32:30;1.70;;;1.20;;
64682;SDS011;51107;47.652;19.016;2024-01-07T08:34:59;1.52;;;0.90;;
64682;SDS011;51107;47.652;19.016;2024-01-07T08:37:27;2.05;;;1.08;;
64682;SDS011;51107;47.652;19.016;2024-01-07T08:39:55;1.73;;;0.88;;
64682;SDS011;51107;47.652;19.016;2024-01-07T08:42:23;1.95;;;1.12;;
64682;SDS011;51107;47.652;19.016;2024-01-07T08:44:56;1.80;;;0.70;;
64682;SDS011;51107;47.652;19.016;2024-01-07T08:47:25;0.70;;;0.70;;
64682;SDS011;51107;47.652;19.016;2024-01-07T08:49:53;1.40;;;0.65;;
64682;SDS011;51107;47.652;19.016;2024-01-07T08:52:21;1.55;;;1.00;;
64682;SDS011;51107;47.652;19.016;2024-01-07T08:54:50;0.98;;;0.77;;
64682;SDS011;51107;47.652;19.016;2024-01-07T08:57:18;1.10;;;0.70;;
64682;SDS011;51107;47.652;19.016;2024-01-07T08:59:46;0.68;;;0.50;;
64682;SDS011;51107;47.652;19.016;2024-01-07T09:02:15;1.75;;;0.85;;
64682;SDS011;51107;47.652;19.016;2024-01-07T09:04:43;0.43;;;0.43;;
64682;SDS011;51107;47.652;19.016;2024-01-07T09:07:12;2.33;;;1.00;;
64682;SDS011;51107;47.652;19.016;2024-01-07T09:09:40;1.67;;;1.05;;
64682;SDS011;51107;47.652;19.016;2024-01-07T09:12:09;3.37;;;1.87;;
64682;SDS011;51107;47.652;19.016;2024-01-07T09:14:37;2.55;;;0.90;;
64682;SDS011;51107;47.652;19.016;2024-01-07T09:17:06;1.77;;;1.37;;
64682;SDS011;51107;47.652;19.016;2024-01-07T09:19:34;0.85;;;0.60;;
64682;SDS011;51107;47.652;19.016;2024-01-07T09:22:02;0.90;;;0.57;;
64682;SDS011;51107;47.652;19.016;2024-01-07T09:24:30;1.27;;;0.50;;
64682;SDS011;51107;47.652;19.016;2024-01-07T09:26:59;0.95;;;0.70;;
64682;SDS011;51107;47.652;19.016;2024-01-07T09:29:28;0.98;;;0.68;;
64682;SDS011;51107;47.652;19.016;2024-01-07T09:31:56;0.82;;;0.52;;
64682;SDS011;51107;47.652;19.016;2024-01-07T09:34:24;1.23;;;0.45;;
64682;SDS011;51107;47.652;19.016;2024-01-07T09:36:52;1.50;;;0.88;;
64682;SDS011;51107;47.652;19.016;2024-01-07T09:39:20;1.30;;;0.80;;
64682;SDS011;51107;47.652;19.016;2024-01-07T09:41:48;0.75;;;0.60;;
64682;SDS011;51107;47.652;19.016;2024-01-07T09:44:17;0.90;;;0.68;;
64682;SDS011;51107;47.652;19.016;2024-01-07T09:46:46;0.88;;;0.80;;
64682;SDS011;51107;47.652;19.016;2024-01-07T09:49:19;1.55;;;0.90;;
64682;SDS011;51107;47.652;19.016;2024-01-07T09:51:47;2.70;;;1.10;;
64682;SDS011;51107;47.652;19.016;2024-01-07T09:54:21;1.65;;;1.08;;
64682;SDS011;51107;47.652;19.016;2024-01-07T09:56:50;1.40;;;0.77;;
64682;SDS011;51107;47.652;19.016;2024-01-07T09:59:28;0.90;;;0.70;;
64682;SDS011;51107;47.652;19.016;2024-01-07T10:01:57;1.45;;;0.88;;
64682;SDS011;51107;47.652;19.016;2024-01-07T10:04:26;1.30;;;0.80;;
64682;SDS011;51107;47.652;19.016;2024-01-07T10:06:58;0.60;;;0.50;;
64682;SDS011;51107;47.652;19.016;2024-01-07T10:09:32;1.95;;;0.68;;
64682;SDS011;51107;47.652;19.016;2024-01-07T10:12:01;0.98;;;0.62;;
64682;SDS011;51107;47.652;19.016;2024-01-07T10:14:30;0.98;;;0.60;;
64682;SDS011;51107;47.652;19.016;2024-01-07T10:17:00;1.48;;;0.50;;
64682;SDS011;51107;47.652;19.016;2024-01-07T10:19:28;0.93;;;0.52;;
64682;SDS011;51107;47.652;19.016;2024-01-07T10:22:00;2.12;;;1.02;;
64682;SDS011;51107;47.652;19.016;2024-01-07T10:24:36;0.50;;;0.40;;
64682;SDS011;51107;47.652;19.016;2024-01-07T10:27:08;2.10;;;0.98;;
64682;SDS011;51107;47.652;19.016;2024-01-07T10:29:37;1.35;;;0.85;;
64682;SDS011;51107;47.652;19.016;2024-01-07T10:32:05;1.37;;;0.75;;
64682;SDS011;51107;47.652;19.016;2024-01-07T10:34:34;2.10;;;0.88;;
64682;SDS011;51107;47.652;19.016;2024-01-07T10:37:04;1.35;;;1.20;;
64682;SDS011;51107;47.652;19.016;2024-01-07T10:39:33;3.50;;;0.80;;
64682;SDS011;51107;47.652;19.016;2024-01-07T10:42:01;0.88;;;0.60;;
64682;SDS011;51107;47.652;19.016;2024-01-07T10:44:31;2.33;;;1.30;;
64682;SDS011;51107;47.652;19.016;2024-01-07T10:47:00;1.62;;;1.17;;
64682;SDS011;51107;47.652;19.016;2024-01-07T10:49:34;2.30;;;1.10;;
64682;SDS011;51107;47.652;19.016;2024-01-07T10:52:05;0.80;;;0.65;;
64682;SDS011;51107;47.652;19.016;2024-01-07T10:54:35;5.03;;;0.82;;
64682;SDS011;51107;47.652;19.016;2024-01-07T10:57:07;1.10;;;0.77;;
64682;SDS011;51107;47.652;19.016;2024-01-07T10:59:42;1.35;;;0.75;;
64682;SDS011;51107;47.652;19.016;2024-01-07T11:02:12;2.75;;;1.20;;
64682;SDS011;51107;47.652;19.016;2024-01-07T11:04:47;2.53;;;1.00;;
64682;SDS011;51107;47.652;19.016;2024-01-07T11:07:40;4.87;;;2.12;;
64682;SDS011;51107;47.652;19.016;2024-01-07T11:10:13;3.17;;;1.50;;
64682;SDS011;51107;47.652;19.016;2024-01-07T11:12:53;2.83;;;1.55;;
64682;SDS011;51107;47.652;19.016;2024-01-07T11:18:19;2.28;;;1.58;;
64682;SDS011;51107;47.652;19.016;2024-01-07T11:20:48;2.80;;;1.48;;
64682;SDS011;51107;47.652;19.016;2024-01-07T11:23:35;2.25;;;1.20;;
64682;SDS011;51107;47.652;19.016;2024-01-07T11:26:10;2.15;;;1.20;;
64682;SDS011;51107;47.652;19.016;2024-01-07T11:28:55;1.95;;;0.93;;
64682;SDS011;51107;47.652;19.016;2024-01-07T11:31:43;3.40;;;1.55;;
64682;SDS011;51107;47.652;19.016;2024-01-07T11:37:16;2.12;;;1.20;;
64682;SDS011;51107;47.652;19.016;2024-01-07T11:39:45;0.60;;;0.50;;
64682;SDS011;51107;47.652;19.016;2024-01-07T11:42:13;0.80;;;0.68;;
64682;SDS011;51107;47.652;19.016;2024-01-07T11:44:48;1.67;;;0.88;;
64682;SDS011;51107;47.652;19.016;2024-01-07T11:47:20;1.45;;;1.05;;
64682;SDS011;51107;47.652;19.016;2024-01-07T11:49:49;0.95;;;0.70;;
64682;SDS011;51107;47.652;19.016;2024-01-07T11:52:17;1.15;;;0.70;;
64682;SDS011;51107;47.652;19.016;2024-01-07T11:54:47;1.08;;;0.90;;
64682;SDS011;51107;47.652;19.016;2024-01-07T11:57:16;1.20;;;0.85;;
64682;SDS011;51107;47.652;19.016;2024-01-07T11:59:45;4.57;;;1.00;;
64682;SDS011;51107;47.652;19.016;2024-01-07T12:02:13;0.45;;;0.30;;
64682;SDS011;51107;47.652;19.016;2024-01-07T12:04:43;1.60;;;1.02;;
64682;SDS011;51107;47.652;19.016;2024-01-07T12:07:11;4.30;;;1.20;;
64682;SDS011;51107;47.652;19.016;2024-01-07T12:09:42;1.45;;;0.73;;
64682;SDS011;51107;47.652;19.016;2024-01-07T12:12:11;1.27;;;0.73;;
64682;SDS011;51107;47.652;19.016;2024-01-07T12:14:39;1.15;;;0.70;;
64682;SDS011;51107;47.652;19.016;2024-01-07T12:17:09;1.77;;;1.42;;
64682;SDS011;51107;47.652;19.016;2024-01-07T12:19:40;1.33;;;0.68;;
64682;SDS011;51107;47.652;19.016;2024-01-07T12:22:09;2.22;;;1.10;;
64682;SDS011;51107;47.652;19.016;2024-01-07T12:24:38;2.00;;;0.75;;
64682;SDS011;51107;47.652;19.016;2024-01-07T12:27:06;1.98;;;1.10;;
64682;SDS011;51107;47.652;19.016;2024-01-07T12:29:35;0.95;;;0.88;;
64682;SDS011;51107;47.652;19.016;2024-01-07T12:32:04;0.95;;;0.60;;
64682;SDS011;51107;47.652;19.016;2024-01-07T12:34:33;1.45;;;0.77;;
64682;SDS011;51107;47.652;19.016;2024-01-07T12:37:01;1.95;;;1.20;;
64682;SDS011;51107;47.652;19.016;2024-01-07T12:39:30;1.20;;;0.73;;
64682;SDS011;51107;47.652;19.016;2024-01-07T12:41:58;1.62;;;0.62;;
64682;SDS011;51107;47.652;19.016;2024-01-07T12:44:27;2.45;;;1.08;;
64682;SDS011;51107;47.652;19.016;2024-01-07T12:46:56;2.92;;;1.00;;
64682;SDS011;51107;47.652;19.016;2024-01-07T12:49:24;2.22;;;1.10;;
64682;SDS011;51107;47.652;19.016;2024-01-07T12:51:53;6.65;;;1.67;;
64682;SDS011;51107;47.652;19.016;2024-01-07T12:54:21;5.95;;;1.45;;
64682;SDS011;51107;47.652;19.016;2024-01-07T12:56:51;1.48;;;0.93;;
64682;SDS011;51107;47.652;19.016;2024-01-07T12:59:19;2.95;;;1.42;;
64682;SDS011;51107;47.652;19.016;2024-01-07T13:01:47;1.23;;;0.85;;
64682;SDS011;51107;47.652;19.016;2024-01-07T13:04:18;2.70;;;1.20;;
64682;SDS011;51107;47.652;19.016;2024-01-07T13:06:47;2.75;;;1.10;;
64682;SDS011;51107;47.652;19.016;2024-01-07T13:09:16;1.62;;;1.00;;
64682;SDS011;51107;47.652;19.016;2024-01-07T13:11:44;2.92;;;1.02;;
64682;SDS011;51107;47.652;19.016;2024-01-07T13:14:13;2.37;;;1.62;;
64682;SDS011;51107;47.652;19.016;2024-01-07T13:16:41;1.25;;;0.93;;
64682;SDS011;51107;47.652;19.016;2024-01-07T13:19:09;0.73;;;0.73;;
64682;SDS011;51107;47.652;19.016;2024-01-07T13:21:39;2.12;;;1.15;;
64682;SDS011;51107;47.652;19.016;2024-01-07T13:24:10;2.12;;;1.40;;
64682;SDS011;51107;47.652;19.016;2024-01-07T13:26:38;1.10;;;1.00;;
64682;SDS011;51107;47.652;19.016;2024-01-07T13:29:06;2.08;;;1.33;;
64682;SDS011;51107;47.652;19.016;2024-01-07T13:31:34;2.00;;;1.20;;
64682;SDS011;51107;47.652;19.016;2024-01-07T13:34:02;2.28;;;1.50;;
64682;SDS011;51107;47.652;19.016;2024-01-07T13:36:31;2.50;;;0.88;;
64682;SDS011;51107;47.652;19.016;2024-01-07T13:38:59;5.07;;;1.25;;
64682;SDS011;51107;47.652;19.016;2024-01-07T13:41:29;2.78;;;1.37;;
64682;SDS011;51107;47.652;19.016;2024-01-07T13:44:00;2.33;;;1.23;;
64682;SDS011;51107;47.652;19.016;2024-01-07T13:46:28;8.40;;;1.30;;
64682;SDS011;51107;47.652;19.016;2024-01-07T13:48:58;1.92;;;1.48;;
64682;SDS011;51107;47.652;19.016;2024-01-07T13:51:28;3.37;;;1.35;;
64682;SDS011;51107;47.652;19.016;2024-01-07T13:53:56;1.42;;;1.20;;
64682;SDS011;51107;47.652;19.016;2024-01-07T13:56:24;2.28;;;1.50;;
64682;SDS011;51107;47.652;19.016;2024-01-07T13:58:52;2.70;;;1.48;;
64682;SDS011;51107;47.652;19.016;2024-01-07T14:01:21;1.50;;;1.10;;
64682;SDS011;51107;47.652;19.016;2024-01-07T14:03:49;1.48;;;1.02;;
64682;SDS011;51107;47.652;19.016;2024-01-07T14:06:18;2.25;;;1.60;;
64682;SDS011;51107;47.652;19.016;2024-01-07T14:08:46;3.37;;;1.40;;
64682;SDS011;51107;47.652;19.016;2024-01-07T14:11:14;3.25;;;1.70;;
64682;SDS011;51107;47.652;19.016;2024-01-07T14:13:43;1.48;;;1.37;;
64682;SDS011;51107;47.652;19.016;2024-01-07T14:16:13;5.15;;;2.42;;
64682;SDS011;51107;47.652;19.016;2024-01-07T14:18:42;2.85;;;1.42;;
64682;SDS011;51107;47.652;19.016;2024-01-07T14:21:10;2.67;;;1.83;;
64682;SDS011;51107;47.652;19.016;2024-01-07T14:23:38;3.53;;;1.55;;
64682;SDS011;51107;47.652;19.016;2024-01-07T14:26:07;3.85;;;2.00;;
64682;SDS011;51107;47.652;19.016;2024-01-07T14:28:35;5.07;;;2.50;;
64682;SDS011;51107;47.652;19.016;2024-01-07T14:31:03;5.90;;;2.67;;
64682;SDS011;51107;47.652;19.016;2024-01-07T14:33:32;2.80;;;1.10;;
64682;SDS011;51107;47.652;19.016;2024-01-07T14:36:02;4.53;;;1.05;;
64682;SDS011;51107;47.652;19.016;2024-01-07T14:38:31;2.33;;;1.42;;
64682;SDS011;51107;47.652;19.016;2024-01-07T14:40:59;3.67;;;1.60;;
64682;SDS011;51107;47.652;19.016;2024-01-07T14:43:27;2.95;;;1.65;;
64682;SDS011;51107;47.652;19.016;2024-01-07T14:45:55;4.15;;;2.05;;
64682;SDS011;51107;47.652;19.016;2024-01-07T14:48:24;2.10;;;1.33;;
64682;SDS011;51107;47.652;19.016;2024-01-07T14:50:53;3.28;;;1.77;;